Time;durP1;ratioP1;P1;durP2;ratioP2;P2;SDS_P1;SDS_P2;PMS_P1;PMS_P2;Temp;Humidity;BMP_temperature;BMP_pressure;BME280_temperature;BME280_humidity;BME280_pressure;Samples;Min_cycle;Max_cycle;Signal;HPM_P1;HPM_P2
2023/05/11 00:08:25;;;;;;;5.53;3.20;;;;;;;9.32;100.00;100807.38;31204826;28;20532;-79
2023/05/11 00:23:26;;;;;;;5.80;2.73;;;;;;;9.10;100.00;100808.63;31206487;28;20042;-77
2023/05/11 00:38:28;;;;;;;5.47;3.30;;;;;;;8.90;100.00;100805.56;31211140;28;20396;-77
2023/05/11 00:53:31;;;;;;;6.00;3.67;;;;;;;8.88;100.00;100810.59;31203124;28;20407;-78
2023/05/11 01:08:35;;;;;;;7.47;3.50;;;;;;;8.78;100.00;100800.53;31219010;28;20049;-76
2023/05/11 01:23:51;;;;;;;13.07;4.50;;;;;;;8.73;100.00;100798.25;31216585;28;20045;-76
2023/05/11 01:38:57;;;;;;;;;;;;;;;8.53;100.00;100801.31;31229556;28;20107;-76
2023/05/11 01:54:01;;;;;;;11.17;4.23;;;;;;;8.45;100.00;100799.03;31211906;28;19995;-80
2023/05/11 02:09:04;;;;;;;8.13;3.80;;;;;;;8.41;100.00;100809.06;31213762;28;20045;-77
2023/05/11 02:24:07;;;;;;;9.70;2.97;;;;;;;8.36;100.00;100802.09;31214659;28;20131;-76
2023/05/11 02:39:12;;;;;;;5.20;3.10;;;;;;;8.40;100.00;100807.53;31221140;28;20045;-77
2023/05/11 02:54:16;;;;;;;4.67;2.83;;;;;;;8.53;100.00;100812.16;31220322;28;20061;-78
2023/05/11 03:09:18;;;;;;;6.03;3.40;;;;;;;8.93;100.00;100823.75;31209826;28;20065;-82
2023/05/11 03:24:21;;;;;;;4.63;3.20;;;;;;;9.39;100.00;100825.56;31160691;28;20054;-83
2023/05/11 03:39:23;;;;;;;10.40;5.53;;;;;;;9.85;100.00;100837.00;31194620;28;20046;-76
2023/05/11 03:54:26;;;;;;;10.87;5.73;;;;;;;10.50;100.00;100843.59;31195898;28;20099;-76
2023/05/11 04:09:28;;;;;;;12.77;5.37;;;;;;;11.18;100.00;100846.47;31214673;28;20133;-83
2023/05/11 04:24:29;;;;;;;19.53;6.93;;;;;;;11.93;100.00;100851.81;31247288;28;20486;-83
2023/05/11 04:39:33;;;;;;;15.07;7.60;;;;;;;12.66;100.00;100863.22;31224203;28;20049;-83
2023/05/11 04:54:37;;;;;;;25.77;10.13;;;;;;;12.76;100.00;100856.81;31249247;28;20061;-84
2023/05/11 05:09:39;;;;;;;24.23;9.13;;;;;;;13.18;100.00;100856.13;31221886;28;20049;-83
2023/05/11 05:24:44;;;;;;;;;;;;;;;14.72;75.03;100842.69;31204230;28;20529;-81
2023/05/11 05:39:46;;;;;;;13.70;4.57;;;;;;;14.73;78.00;100849.69;31249298;28;19922;-82
2023/05/11 05:54:49;;;;;;;6.57;3.03;;;;;;;16.12;69.67;100852.09;31237198;28;20064;-85
2023/05/11 06:09:50;;;;;;;5.67;1.80;;;;;;;16.90;50.52;100849.63;31252986;28;20118;-85
2023/05/11 06:24:52;;;;;;;8.87;2.27;;;;;;;17.52;50.23;100844.31;31272736;28;20121;-83
2023/05/11 06:39:55;;;;;;;4.15;1.33;;;;;;;18.31;43.94;100845.63;31274231;28;20068;-83
2023/05/11 06:54:57;;;;;;;2.95;1.77;;;;;;;19.02;40.96;100843.50;31256216;28;20073;-85
2023/05/11 07:09:59;;;;;;;2.05;1.10;;;;;;;19.70;38.17;100848.78;31258312;28;20046;-84
2023/05/11 07:25:01;;;;;;;4.82;1.45;;;;;;;19.78;37.66;100849.25;31208688;28;20057;-86
2023/05/11 07:40:03;;;;;;;2.58;1.10;;;;;;;20.49;35.82;100841.16;31272922;28;20049;-84
2023/05/11 07:55:06;;;;;;;1.50;1.20;;;;;;;19.52;35.99;100843.31;31216711;28;20147;-81
2023/05/11 08:10:08;;;;;;;2.83;1.30;;;;;;;19.74;37.17;100839.16;31256267;28;20094;-83
2023/05/11 08:25:10;;;;;;;2.63;1.58;;;;;;;20.62;35.89;100832.63;31259307;28;20050;-82
2023/05/11 08:40:14;;;;;;;;;;;;;;;21.50;33.34;100840.34;31232900;28;20056;-78
2023/05/11 08:55:16;;;;;;;5.85;3.20;;;;;;;21.83;33.52;100837.38;31245629;28;19969;-82
2023/05/11 09:10:19;;;;;;;2.80;1.40;;;;;;;20.85;33.87;100822.81;31227329;28;20060;-81
2023/05/11 09:25:23;;;;;;;7.05;1.48;;;;;;;19.93;36.83;100831.56;31228239;28;20045;-80
2023/05/11 09:40:28;;;;;;;2.33;1.10;;;;;;;22.50;33.09;100811.50;31286802;28;20053;-83
2023/05/11 09:55:35;;;;;;;2.53;1.20;;;;;;;19.95;36.44;100820.84;31236543;28;20087;-83
2023/05/11 10:10:37;;;;;;;2.90;1.85;;;;;;;20.27;37.46;100827.59;31245631;28;20053;-84
2023/05/11 10:25:39;;;;;;;6.10;1.80;;;;;;;20.95;35.77;100816.00;31261493;28;20053;-84
2023/05/11 10:40:44;;;;;;;2.00;1.35;;;;;;;21.79;35.67;100815.47;31276961;28;20145;-82
2023/05/11 10:56:20;;;;;;;3.08;2.00;;;;;;;20.01;36.80;100819.00;31273142;28;20053;-82
2023/05/11 11:11:38;;;;;;;4.50;1.88;;;;;;;19.62;38.04;100822.78;31279203;28;20053;-80
2023/05/11 11:26:49;;;;;;;3.92;1.60;;;;;;;19.27;36.94;100823.16;31195234;28;20056;-79
2023/05/11 11:42:01;;;;;;;4.57;1.30;;;;;;;19.42;36.95;100823.28;31185064;28;20060;-80
2023/05/11 11:57:03;;;;;;;3.88;1.67;;;;;;;20.50;36.07;100801.31;31289618;28;20065;-75
2023/05/11 12:12:05;;;;;;;3.17;1.80;;;;;;;20.48;35.42;100792.75;31278832;28;20566;-87
2023/05/11 12:27:08;;;;;;;2.75;1.27;;;;;;;19.87;35.29;100789.34;31282594;28;20053;-82
2023/05/11 12:42:17;;;;;;;1.65;1.30;;;;;;;19.22;37.40;100793.47;31224476;28;20061;-86
2023/05/11 12:57:28;;;;;;;7.45;1.55;;;;;;;18.46;37.69;100805.34;31243063;28;20064;-76
2023/05/11 13:12:31;;;;;;;6.28;2.20;;;;;;;18.33;38.84;100801.97;31256314;28;20041;-81
2023/05/11 13:27:33;;;;;;;2.38;1.80;;;;;;;18.31;38.34;100798.91;31236267;28;20140;-74
2023/05/11 13:42:36;;;;;;;2.33;1.17;;;;;;;18.94;37.17;100801.00;31229730;28;20046;-82
2023/05/11 13:57:38;;;;;;;1.75;1.30;;;;;;;19.24;36.76;100785.53;31217752;28;20088;-79
2023/05/11 14:12:40;;;;;;;8.27;2.40;;;;;;;19.16;36.79;100789.06;31237887;28;20087;-80
2023/05/11 14:27:42;;;;;;;2.20;1.52;;;;;;;19.16;36.17;100778.81;31245618;28;20057;-75
2023/05/11 14:42:44;;;;;;;3.95;2.45;;;;;;;18.62;37.73;100796.09;31207830;28;20046;-75
2023/05/11 14:57:46;;;;;;;5.80;1.92;;;;;;;18.00;39.25;100796.97;31212656;28;20045;-74
2023/05/11 15:12:48;;;;;;;4.60;3.00;;;;;;;17.86;39.25;100811.28;31223667;28;20048;-83
2023/05/11 15:27:50;;;;;;;3.03;2.25;;;;;;;18.11;38.69;100806.78;31255117;28;20045;-77
2023/05/11 15:42:53;;;;;;;3.88;1.52;;;;;;;18.02;39.51;100805.53;31213010;28;20495;-79
2023/05/11 15:57:56;;;;;;;5.40;2.80;;;;;;;17.94;40.10;100809.78;31231801;28;20057;-82
2023/05/11 16:12:58;;;;;;;17.27;8.45;;;;;;;17.66;40.79;100821.84;31215239;28;20665;-79
2023/05/11 16:28:00;;;;;;;5.95;2.60;;;;;;;17.35;42.00;100830.78;31228283;28;20053;-83
2023/05/11 16:43:02;;;;;;;8.40;2.25;;;;;;;17.06;43.00;100833.00;31224868;28;20054;-83
2023/05/11 16:58:04;;;;;;;5.90;2.80;;;;;;;16.76;44.00;100844.63;31200362;28;20050;-84
2023/05/11 17:13:06;;;;;;;14.37;5.60;;;;;;;16.43;44.61;100857.81;31280444;28;20068;-85
2023/05/11 17:28:08;;;;;;;8.97;2.57;;;;;;;16.19;45.13;100862.84;31257016;28;20458;-84
2023/05/11 17:43:10;;;;;;;12.77;5.60;;;;;;;16.02;45.24;100871.19;31227724;28;20127;-81
2023/05/11 17:58:12;;;;;;;65.70;16.83;;;;;;;15.87;46.16;100889.22;31271540;28;20144;-84
2023/05/11 18:13:14;;;;;;;9.13;4.40;;;;;;;15.78;46.12;100894.56;31252346;28;20057;-81
2023/05/11 18:28:18;;;;;;;9.05;5.05;;;;;;;15.66;45.79;100896.06;31274039;28;20065;-83
2023/05/11 18:43:20;;;;;;;9.00;2.50;;;;;;;15.55;45.91;100909.25;31306870;28;20144;-88
2023/05/11 18:58:23;;;;;;;5.67;2.97;;;;;;;15.45;45.75;100906.81;31241567;28;20450;-86
2023/05/11 19:13:25;;;;;;;6.63;2.63;;;;;;;15.39;45.91;100911.25;31236392;28;20531;-85
2023/05/11 19:28:29;;;;;;;13.23;6.80;;;;;;;15.33;46.34;100909.06;31242470;28;20045;-85
2023/05/11 19:43:31;;;;;;;7.03;2.63;;;;;;;15.29;46.92;100916.59;31264127;28;20056;-80
2023/05/11 19:58:34;;;;;;;12.23;6.30;;;;;;;15.21;47.47;100912.50;31209148;28;20093;-81
2023/05/11 20:13:36;;;;;;;7.53;2.30;;;;;;;15.03;47.64;100906.72;31240669;28;20076;-83
2023/05/11 20:28:38;;;;;;;3.63;2.57;;;;;;;14.89;47.78;100907.81;31218485;28;20052;-78
2023/05/11 20:43:40;;;;;;;3.20;2.33;;;;;;;14.77;47.74;100905.03;31186256;28;1300917;-81
2023/05/11 20:58:43;;;;;;;4.90;2.53;;;;;;;14.71;48.09;100912.19;31239661;28;20053;-84
2023/05/11 21:13:44;;;;;;;9.33;4.83;;;;;;;14.59;47.57;100911.69;31243561;28;20046;-82
2023/05/11 21:28:56;;;;;;;8.33;2.17;;;;;;;14.39;48.96;100910.97;31272219;28;20577;-81
2023/05/11 21:43:58;;;;;;;8.00;2.30;;;;;;;14.11;49.53;100909.63;31266922;28;20054;-83
2023/05/11 21:59:01;;;;;;;6.63;3.33;;;;;;;13.90;50.15;100915.53;31209975;28;20500;-76
